createdAt,value
2018-12-22T00:01:52.985Z,97.60
2018-12-22T00:04:22.580Z,97.70
2018-12-22T00:06:52.119Z,97.60
2018-12-22T00:09:22.567Z,97.40
2018-12-22T00:11:52.388Z,98.00
2018-12-22T00:14:22.086Z,97.70
2018-12-22T00:16:51.615Z,98.00
2018-12-22T00:19:21.168Z,98.50
2018-12-22T00:21:54.692Z,98.10
2018-12-22T00:24:24.524Z,97.80
2018-12-22T00:26:54.110Z,98.20
2018-12-22T00:29:23.724Z,98.20
2018-12-22T00:31:53.344Z,98.40
2018-12-22T00:34:23.115Z,98.90
2018-12-22T00:36:52.625Z,98.80
2018-12-22T00:39:22.257Z,98.40
2018-12-22T00:41:51.858Z,99.00
2018-12-22T00:44:21.670Z,98.90
2018-12-22T00:46:51.206Z,99.30
2018-12-22T00:49:20.945Z,99.20
2018-12-22T00:51:50.605Z,99.50
2018-12-22T00:54:20.411Z,99.40
2018-12-22T00:56:49.918Z,99.60
2018-12-22T00:59:19.425Z,99.90
2018-12-22T01:01:49.035Z,99.90
2018-12-22T01:04:18.573Z,99.90
2018-12-22T01:06:48.143Z,99.90
2018-12-22T01:09:17.704Z,99.90
2018-12-22T01:11:47.352Z,99.90
2018-12-22T01:14:16.871Z,99.90
2018-12-22T01:16:46.396Z,99.90
2018-12-22T01:19:16.011Z,99.90
2018-12-22T01:21:45.488Z,99.90
2018-12-22T01:24:15.051Z,99.90
2018-12-22T01:26:44.615Z,99.90
2018-12-22T01:29:14.174Z,99.90
2018-12-22T01:31:43.711Z,99.90
2018-12-22T01:34:13.735Z,99.90
2018-12-22T01:36:44.969Z,99.90
2018-12-22T01:39:15.518Z,99.90
2018-12-22T01:41:45.512Z,99.90
2018-12-22T01:44:15.372Z,99.90
2018-12-22T01:46:44.995Z,99.90
2018-12-22T01:49:14.651Z,99.90
2018-12-22T01:51:44.268Z,99.90
2018-12-22T01:54:13.822Z,99.90
2018-12-22T01:56:43.346Z,99.90
2018-12-22T01:59:13.447Z,99.90
2018-12-22T02:01:43.103Z,99.90
2018-12-22T02:04:12.736Z,99.90
2018-12-22T02:06:42.462Z,99.90
2018-12-22T02:09:12.323Z,99.90
2018-12-22T02:11:41.983Z,99.90
2018-12-22T02:14:11.467Z,99.90
2018-12-22T02:16:40.992Z,99.90
2018-12-22T02:19:10.666Z,99.90
2018-12-22T02:21:40.172Z,99.90
2018-12-22T02:24:09.683Z,99.90
2018-12-22T02:26:39.390Z,99.90
2018-12-22T02:29:08.942Z,99.90
2018-12-22T02:31:38.477Z,99.90
2018-12-22T02:34:08.206Z,99.80
2018-12-22T02:36:37.709Z,99.90
2018-12-22T02:39:08.334Z,99.60
2018-12-22T02:41:37.822Z,99.10
2018-12-22T02:44:07.288Z,98.60
2018-12-22T02:46:36.875Z,98.70
2018-12-22T02:49:06.359Z,98.70
2018-12-22T02:51:35.855Z,98.80
2018-12-22T02:54:05.566Z,98.80
2018-12-22T02:56:35.101Z,98.80
2018-12-22T02:59:06.276Z,98.90
2018-12-22T03:01:36.274Z,98.80
2018-12-22T03:04:05.854Z,98.70
2018-12-22T03:06:35.459Z,98.60
2018-12-22T03:09:07.409Z,98.50
2018-12-22T03:11:37.142Z,98.50
2018-12-22T03:14:06.647Z,98.40
2018-12-22T03:16:36.212Z,98.40
2018-12-22T03:19:05.704Z,98.60
2018-12-22T03:21:35.269Z,98.20
2018-12-22T03:24:04.891Z,98.30
2018-12-22T03:26:34.417Z,98.50
2018-12-22T03:29:03.907Z,98.70
2018-12-22T03:31:33.403Z,98.70
2018-12-22T03:34:03.135Z,98.70
2018-12-22T03:36:32.766Z,98.70
2018-12-22T03:39:02.505Z,98.80
2018-12-22T03:41:32.486Z,99.00
2018-12-22T03:44:01.988Z,98.80
2018-12-22T03:46:31.584Z,99.00
2018-12-22T03:49:01.298Z,98.70
2018-12-22T03:51:30.982Z,98.90
2018-12-22T03:54:00.643Z,99.00
2018-12-22T03:56:30.149Z,98.70
2018-12-22T03:58:59.625Z,98.70
2018-12-22T04:01:29.089Z,98.90
2018-12-22T04:03:58.688Z,98.90
2018-12-22T04:06:28.299Z,99.10
2018-12-22T04:08:57.852Z,99.10
2018-12-22T04:11:27.429Z,99.30
2018-12-22T04:13:56.987Z,99.30
2018-12-22T04:16:26.646Z,99.50
2018-12-22T04:18:56.144Z,99.40
2018-12-22T04:21:25.664Z,99.60
2018-12-22T04:23:55.442Z,99.80
2018-12-22T04:26:25.128Z,99.90
2018-12-22T04:28:54.664Z,99.90
2018-12-22T04:31:24.349Z,99.90
2018-12-22T04:33:54.041Z,99.90
2018-12-22T04:36:26.493Z,99.90
2018-12-22T04:38:55.979Z,99.90
2018-12-22T04:41:25.528Z,99.90
2018-12-22T04:43:55.051Z,99.90
2018-12-22T04:46:24.618Z,99.90
2018-12-22T04:48:54.159Z,99.90
2018-12-22T04:51:23.688Z,99.90
2018-12-22T04:53:53.218Z,99.90
2018-12-22T04:56:22.710Z,99.90
2018-12-22T04:58:52.210Z,99.90
2018-12-22T05:01:21.727Z,99.90
2018-12-22T05:03:51.223Z,99.90
2018-12-22T05:06:20.797Z,99.90
2018-12-22T05:08:50.367Z,99.90
2018-12-22T05:11:20.138Z,99.90
2018-12-22T05:13:49.624Z,99.90
2018-12-22T05:16:19.188Z,99.90
2018-12-22T05:18:48.653Z,99.90
2018-12-22T05:21:18.153Z,99.90
2018-12-22T05:23:47.955Z,99.90
2018-12-22T05:26:17.436Z,99.90
2018-12-22T05:28:47.094Z,99.90
2018-12-22T05:31:16.718Z,99.90
2018-12-22T05:33:46.212Z,99.90
2018-12-22T05:36:15.720Z,99.90
2018-12-22T05:38:45.213Z,99.90
2018-12-22T05:41:14.820Z,99.90
2018-12-22T05:43:44.379Z,99.90
2018-12-22T05:46:13.890Z,99.90
2018-12-22T05:48:43.475Z,99.90
2018-12-22T05:51:13.068Z,99.90
2018-12-22T05:53:42.608Z,99.80
2018-12-22T05:56:12.193Z,99.60
2018-12-22T05:58:41.721Z,99.90
2018-12-22T06:01:11.518Z,99.90
2018-12-22T06:03:41.175Z,99.90
2018-12-22T06:06:10.683Z,99.70
2018-12-22T06:08:40.278Z,99.80
2018-12-22T06:11:09.763Z,99.90
2018-12-22T06:13:39.418Z,99.70
2018-12-22T06:16:08.924Z,99.70
2018-12-22T06:18:38.434Z,99.80
2018-12-22T06:21:08.064Z,99.80
2018-12-22T06:23:37.678Z,99.90
2018-12-22T06:26:07.142Z,99.90
2018-12-22T06:28:36.643Z,99.90
2018-12-22T06:31:06.250Z,99.90
2018-12-22T06:33:36.156Z,99.90
2018-12-22T06:36:05.963Z,99.90
2018-12-22T06:38:35.598Z,99.90
2018-12-22T06:41:05.270Z,99.90
2018-12-22T06:43:34.807Z,99.90
2018-12-22T06:46:04.288Z,99.90
2018-12-22T06:48:33.931Z,99.90
2018-12-22T06:51:03.709Z,99.90
2018-12-22T06:53:33.367Z,99.90
2018-12-22T06:56:03.020Z,99.90
2018-12-22T06:58:32.507Z,99.90
2018-12-22T07:01:02.112Z,99.90
2018-12-22T07:03:32.429Z,99.90
2018-12-22T07:06:01.896Z,99.90
2018-12-22T07:08:31.461Z,99.90
2018-12-22T07:11:01.104Z,99.90
2018-12-22T07:13:30.638Z,99.90
2018-12-22T07:16:00.164Z,99.90
2018-12-22T07:18:29.733Z,99.90
2018-12-22T07:20:59.496Z,99.90
2018-12-22T07:23:29.183Z,99.90
2018-12-22T07:25:58.952Z,99.70
2018-12-22T07:28:28.572Z,99.60
2018-12-22T07:30:58.147Z,99.40
2018-12-22T07:33:27.787Z,99.00
2018-12-22T07:35:57.476Z,98.70
2018-12-22T07:38:27.349Z,98.60
2018-12-22T07:40:56.887Z,98.70
2018-12-22T07:43:30.958Z,98.00
2018-12-22T07:46:01.583Z,98.20
2018-12-22T07:48:31.080Z,98.00
2018-12-22T07:51:00.669Z,97.60
2018-12-22T07:53:30.176Z,97.60
2018-12-22T07:55:59.679Z,97.40
2018-12-22T07:58:29.303Z,97.80
2018-12-22T08:00:58.767Z,97.00
2018-12-22T08:03:28.402Z,97.00
2018-12-22T08:05:58.034Z,96.90
2018-12-22T08:08:27.634Z,96.90
2018-12-22T08:10:57.153Z,96.50
2018-12-22T08:13:26.714Z,96.30
2018-12-22T08:15:56.399Z,96.30
2018-12-22T08:18:26.095Z,96.10
2018-12-22T08:20:55.634Z,96.00
2018-12-22T08:23:25.139Z,96.00
2018-12-22T08:25:54.931Z,96.10
2018-12-22T08:28:24.511Z,96.30
2018-12-22T08:30:54.198Z,96.40
2018-12-22T08:33:23.764Z,96.30
2018-12-22T08:35:53.387Z,96.30
2018-12-22T08:38:22.949Z,96.90
2018-12-22T08:40:52.659Z,97.00
2018-12-22T08:43:22.252Z,96.90
2018-12-22T08:45:51.764Z,96.60
2018-12-22T08:48:21.381Z,96.50
2018-12-22T08:50:51.147Z,96.30
2018-12-22T08:53:20.769Z,96.40
2018-12-22T08:55:50.365Z,96.50
2018-12-22T08:58:20.143Z,96.50
2018-12-22T09:00:52.245Z,96.60
2018-12-22T09:03:21.454Z,96.50
2018-12-22T09:05:51.055Z,96.30
2018-12-22T09:08:20.698Z,95.80
2018-12-22T09:10:50.217Z,95.30
2018-12-22T09:13:20.951Z,95.10
2018-12-22T09:15:50.991Z,95.20
2018-12-22T09:18:20.742Z,95.00
2018-12-22T09:20:50.266Z,95.00
2018-12-22T09:23:19.724Z,95.00
2018-12-22T09:25:49.375Z,94.20
2018-12-22T09:28:18.915Z,93.20
2018-12-22T09:30:48.547Z,92.10
2018-12-22T09:33:18.282Z,91.20
2018-12-22T09:35:47.883Z,90.40
2018-12-22T09:38:17.692Z,89.70
2018-12-22T09:40:47.443Z,89.60
2018-12-22T09:43:17.116Z,90.30
2018-12-22T09:45:46.881Z,89.90
2018-12-22T09:48:16.430Z,88.40
2018-12-22T09:50:46.056Z,84.30
2018-12-22T09:53:15.786Z,79.30
2018-12-22T09:55:45.476Z,80.00
2018-12-22T09:58:15.015Z,78.10
2018-12-22T10:00:44.683Z,76.20
2018-12-22T10:03:14.295Z,74.40
2018-12-22T10:05:43.892Z,73.10
2018-12-22T10:08:13.806Z,73.00
2018-12-22T10:10:43.345Z,78.30
2018-12-22T10:13:12.885Z,81.20
2018-12-22T10:15:42.659Z,83.60
2018-12-22T10:18:12.472Z,85.40
2018-12-22T10:20:42.005Z,89.40
2018-12-22T10:23:11.496Z,90.00
2018-12-22T10:25:41.042Z,90.90
2018-12-22T10:28:10.748Z,91.40
2018-12-22T10:30:40.272Z,90.00
2018-12-22T10:33:11.227Z,85.00
2018-12-22T10:35:40.738Z,82.20
2018-12-22T10:38:10.208Z,79.70
2018-12-22T10:40:39.726Z,77.90
2018-12-22T10:43:09.215Z,75.60
2018-12-22T10:45:38.838Z,73.90
2018-12-22T10:48:08.881Z,75.30
2018-12-22T10:50:38.457Z,76.00
2018-12-22T10:53:08.082Z,77.50
2018-12-22T10:55:37.705Z,78.00
2018-12-22T10:58:09.076Z,79.60
2018-12-22T11:00:38.734Z,81.30
2018-12-22T11:03:08.272Z,82.80
2018-12-22T11:05:37.859Z,83.40
2018-12-22T11:08:07.422Z,80.80
2018-12-22T11:10:36.901Z,73.90
2018-12-22T11:13:07.155Z,68.50
2018-12-22T11:15:36.897Z,62.90
2018-12-22T11:18:06.711Z,59.80
2018-12-22T11:20:36.235Z,61.20
2018-12-22T11:23:05.753Z,62.20
2018-12-22T11:25:35.315Z,63.10
2018-12-22T11:28:04.871Z,64.10
2018-12-22T11:30:38.971Z,66.60
2018-12-22T11:33:08.702Z,68.90
2018-12-22T11:35:38.383Z,66.70
2018-12-22T11:38:14.428Z,64.00
2018-12-22T11:40:44.258Z,63.40
2018-12-22T11:43:13.884Z,64.10
2018-12-22T11:45:43.560Z,64.90
2018-12-22T11:48:26.626Z,65.60
2018-12-22T11:50:56.315Z,67.60
2018-12-22T11:53:25.908Z,61.60
2018-12-22T11:55:55.543Z,60.50
2018-12-22T11:58:25.524Z,60.70
2018-12-22T12:00:55.164Z,57.00
2018-12-22T12:03:24.727Z,56.60
2018-12-22T12:05:54.461Z,54.00
2018-12-22T12:08:24.037Z,52.20
2018-12-22T12:10:53.534Z,51.30
2018-12-22T12:13:23.127Z,48.80
2018-12-22T12:16:05.219Z,48.30
2018-12-22T12:19:12.114Z,47.50
2018-12-22T12:21:41.773Z,45.10
2018-12-22T12:24:11.376Z,44.00
2018-12-22T12:26:41.121Z,45.10
2018-12-22T12:29:10.618Z,44.00
2018-12-22T12:31:40.146Z,44.70
2018-12-22T12:34:09.696Z,44.20
2018-12-22T12:36:40.062Z,44.60
2018-12-22T12:39:13.256Z,46.00
2018-12-22T12:41:42.976Z,48.10
2018-12-22T12:44:12.706Z,49.80
2018-12-22T12:46:53.418Z,50.80
2018-12-22T12:49:23.841Z,52.40
2018-12-22T12:51:53.446Z,53.60
2018-12-22T12:54:23.501Z,53.60
2018-12-22T12:56:57.366Z,54.20
2018-12-22T12:59:29.350Z,56.00
2018-12-22T13:02:01.263Z,58.20
2018-12-22T13:04:31.065Z,59.30
2018-12-22T13:07:01.048Z,61.70
2018-12-22T13:09:30.754Z,63.80
2018-12-22T13:12:10.739Z,64.00
2018-12-22T13:14:40.608Z,66.70
2018-12-22T13:17:10.305Z,68.30
2018-12-22T13:19:39.921Z,68.30
2018-12-22T13:22:09.659Z,69.70
2018-12-22T13:24:39.162Z,71.00
2018-12-22T13:27:08.901Z,72.60
2018-12-22T13:29:38.867Z,72.70
2018-12-22T13:32:09.937Z,73.00
2018-12-22T13:34:40.034Z,73.60
2018-12-22T13:37:09.700Z,73.20
2018-12-22T13:39:39.486Z,73.70
2018-12-22T13:42:09.595Z,74.00
2018-12-22T13:44:39.285Z,74.80
2018-12-22T13:47:08.927Z,75.00
2018-12-22T13:49:38.966Z,75.30
2018-12-22T13:52:08.632Z,75.30
2018-12-22T13:54:38.234Z,74.90
2018-12-22T13:57:07.823Z,74.70
2018-12-22T13:59:37.431Z,75.90
2018-12-22T14:02:08.283Z,75.80
2018-12-22T14:04:38.795Z,76.70
2018-12-22T14:07:11.970Z,76.10
2018-12-22T14:09:41.443Z,77.00
2018-12-22T14:12:10.913Z,77.70
2018-12-22T14:14:42.091Z,78.60
2018-12-22T14:17:20.545Z,78.80
2018-12-22T14:20:00.762Z,80.00
2018-12-22T14:22:33.281Z,79.70
2018-12-22T14:25:04.479Z,80.60
2018-12-22T14:27:34.460Z,81.20
2018-12-22T14:30:04.486Z,81.30
2018-12-22T14:32:34.277Z,81.20
2018-12-22T14:35:55.819Z,82.20
2018-12-22T14:38:25.509Z,82.40
2018-12-22T14:40:55.143Z,84.10
2018-12-22T14:43:24.848Z,84.30
2018-12-22T14:45:54.556Z,84.60
2018-12-22T14:48:24.408Z,85.80
2018-12-22T14:50:53.901Z,86.60
2018-12-22T14:53:23.607Z,87.70
2018-12-22T14:55:54.059Z,88.40
2018-12-22T14:58:28.468Z,88.40
2018-12-22T15:00:58.236Z,89.40
2018-12-22T15:03:28.125Z,90.00
2018-12-22T15:05:57.770Z,90.50
2018-12-22T15:08:27.420Z,90.60
2018-12-22T15:10:57.003Z,91.10
2018-12-22T15:13:26.699Z,91.50
2018-12-22T15:15:56.454Z,91.70
2018-12-22T15:18:25.983Z,91.60
2018-12-22T15:20:57.667Z,91.80
2018-12-22T15:23:27.567Z,91.80
2018-12-22T15:25:57.076Z,92.10
2018-12-22T15:28:26.568Z,92.60
2018-12-22T15:30:56.145Z,92.60
2018-12-22T15:33:25.647Z,93.30
2018-12-22T15:35:55.379Z,93.40
2018-12-22T15:38:24.883Z,93.10
2018-12-22T15:40:54.664Z,93.60
2018-12-22T15:43:24.901Z,93.80
2018-12-22T15:45:54.658Z,94.30
2018-12-22T15:48:24.374Z,94.30
2018-12-22T15:50:54.645Z,94.60
2018-12-22T15:53:24.096Z,95.30
2018-12-22T15:55:53.658Z,95.50
2018-12-22T15:58:23.214Z,95.70
2018-12-22T16:00:52.700Z,95.80
2018-12-22T16:03:22.524Z,96.30
2018-12-22T16:05:52.002Z,96.60
2018-12-22T16:08:21.779Z,96.70
2018-12-22T16:10:51.363Z,97.00
2018-12-22T16:13:21.131Z,97.10
2018-12-22T16:15:50.789Z,97.40
2018-12-22T16:18:20.583Z,98.10
2018-12-22T16:20:50.882Z,98.10
2018-12-22T16:23:20.502Z,98.10
2018-12-22T16:25:50.331Z,98.60
2018-12-22T16:28:25.514Z,98.60
2018-12-22T16:30:58.531Z,98.80
2018-12-22T16:33:28.201Z,98.90
2018-12-22T16:35:57.686Z,99.00
2018-12-22T16:38:27.460Z,99.00
2018-12-22T16:40:57.314Z,99.10
2018-12-22T16:43:26.865Z,99.40
2018-12-22T16:45:56.391Z,99.40
2018-12-22T16:48:26.632Z,99.50
2018-12-22T16:50:56.139Z,99.40
2018-12-22T16:53:25.742Z,99.60
2018-12-22T16:55:55.328Z,99.50
2018-12-22T16:58:41.456Z,99.60
2018-12-22T17:01:31.804Z,99.90
2018-12-22T17:04:01.550Z,99.90
2018-12-22T17:06:32.449Z,99.90
2018-12-22T17:09:02.230Z,99.90
2018-12-22T17:11:31.823Z,99.90
2018-12-22T17:14:01.395Z,99.90
2018-12-22T17:16:31.121Z,99.90
2018-12-22T17:19:00.724Z,99.90
2018-12-22T17:21:44.485Z,99.90
2018-12-22T17:24:27.907Z,99.90
2018-12-22T17:26:58.643Z,99.90
2018-12-22T17:29:28.447Z,99.90
2018-12-22T17:31:58.147Z,99.90
2018-12-22T17:34:28.232Z,99.90
2018-12-22T17:36:58.101Z,99.90
2018-12-22T17:39:36.486Z,99.90
2018-12-22T17:41:59.726Z,99.90
2018-12-22T17:44:29.466Z,99.90
2018-12-22T17:46:59.200Z,99.90
2018-12-22T17:49:28.744Z,99.90
2018-12-22T17:51:58.426Z,99.90
2018-12-22T17:54:28.126Z,99.90
2018-12-22T17:56:57.871Z,99.90
2018-12-22T17:59:27.568Z,99.90
2018-12-22T18:01:57.238Z,99.90
2018-12-22T18:04:26.835Z,99.90
2018-12-22T18:06:56.612Z,99.90
2018-12-22T18:09:26.365Z,99.90
2018-12-22T18:11:56.077Z,99.90
2018-12-22T18:14:25.842Z,99.90
2018-12-22T18:16:55.475Z,99.90
2018-12-22T18:19:25.020Z,99.90
2018-12-22T18:21:55.501Z,99.90
2018-12-22T18:24:25.393Z,99.90
2018-12-22T18:26:54.952Z,99.90
2018-12-22T18:29:24.664Z,99.90
2018-12-22T18:31:55.590Z,99.90
2018-12-22T18:34:26.329Z,99.90
2018-12-22T18:36:56.088Z,99.90
2018-12-22T18:39:25.651Z,99.90
2018-12-22T18:41:55.452Z,99.90
2018-12-22T18:44:25.015Z,99.90
2018-12-22T18:46:54.470Z,99.90
2018-12-22T18:49:24.114Z,99.90
2018-12-22T18:51:53.852Z,99.90
2018-12-22T18:54:23.357Z,99.90
2018-12-22T18:56:52.973Z,99.90
2018-12-22T18:59:24.411Z,99.90
2018-12-22T19:01:54.095Z,99.90
2018-12-22T19:04:23.834Z,99.90
2018-12-22T19:06:53.417Z,99.90
2018-12-22T19:09:27.950Z,99.90
2018-12-22T19:11:57.755Z,99.90
2018-12-22T19:14:27.279Z,99.90
2018-12-22T19:16:56.855Z,99.90
2018-12-22T19:19:26.370Z,99.90
2018-12-22T19:21:55.922Z,99.90
2018-12-22T19:24:25.768Z,99.90
2018-12-22T19:26:55.609Z,99.90
2018-12-22T19:29:25.293Z,99.90
2018-12-22T19:31:55.013Z,99.90
2018-12-22T19:34:24.808Z,99.90
2018-12-22T19:36:54.518Z,99.90
2018-12-22T19:39:24.104Z,99.90
2018-12-22T19:41:54.138Z,99.90
2018-12-22T19:44:24.049Z,99.90
2018-12-22T19:46:53.720Z,99.90
2018-12-22T19:49:23.725Z,99.90
2018-12-22T19:51:53.290Z,99.90
2018-12-22T19:54:22.915Z,99.90
2018-12-22T19:56:52.400Z,99.90
2018-12-22T19:59:22.024Z,99.90
2018-12-22T20:01:51.546Z,99.90
2018-12-22T20:04:21.132Z,99.90
2018-12-22T20:06:50.982Z,99.90
2018-12-22T20:09:20.647Z,99.90
2018-12-22T20:11:50.465Z,99.90
2018-12-22T20:14:20.555Z,99.90
2018-12-22T20:16:50.343Z,99.90
2018-12-22T20:19:19.874Z,99.90
2018-12-22T20:21:49.430Z,99.90
2018-12-22T20:24:19.261Z,99.90
2018-12-22T20:26:48.907Z,99.90
2018-12-22T20:29:18.550Z,99.90
2018-12-22T20:31:48.053Z,99.90
2018-12-22T20:34:17.573Z,99.90
2018-12-22T20:36:47.170Z,99.90
2018-12-22T20:39:16.817Z,99.90
2018-12-22T20:41:46.788Z,99.90
2018-12-22T20:44:16.399Z,99.90
2018-12-22T20:46:46.184Z,99.90
2018-12-22T20:49:15.813Z,99.90
2018-12-22T20:51:45.312Z,99.90
2018-12-22T20:54:14.911Z,99.90
2018-12-22T20:56:44.740Z,99.90
2018-12-22T20:59:14.895Z,99.90
2018-12-22T21:01:44.438Z,99.90
2018-12-22T21:04:19.745Z,99.90
2018-12-22T21:06:45.659Z,99.90
2018-12-22T21:09:15.182Z,99.90
2018-12-22T21:11:44.689Z,99.90
2018-12-22T21:14:14.222Z,99.90
2018-12-22T21:16:43.998Z,99.90
2018-12-22T21:19:13.608Z,99.90
2018-12-22T21:21:43.268Z,99.90
2018-12-22T21:24:13.596Z,99.90
2018-12-22T21:26:43.147Z,99.90
2018-12-22T21:29:12.849Z,99.90
2018-12-22T21:31:42.644Z,99.90
2018-12-22T21:34:12.202Z,99.90
2018-12-22T21:36:41.946Z,99.90
2018-12-22T21:39:11.576Z,99.90
2018-12-22T21:41:41.061Z,99.90
2018-12-22T21:44:11.556Z,99.90
2018-12-22T21:46:41.158Z,99.90
2018-12-22T21:49:10.807Z,99.90
2018-12-22T21:51:40.566Z,99.90
2018-12-22T21:54:10.508Z,99.90
2018-12-22T21:56:39.973Z,99.90
2018-12-22T21:59:09.640Z,99.90
2018-12-22T22:01:39.468Z,99.90
2018-12-22T22:04:08.942Z,99.90
2018-12-22T22:06:38.766Z,99.90
2018-12-22T22:09:08.622Z,99.90
2018-12-22T22:11:38.390Z,99.90
2018-12-22T22:14:08.015Z,99.90
2018-12-22T22:16:37.729Z,99.90
2018-12-22T22:19:07.467Z,99.90
2018-12-22T22:21:36.984Z,99.90
2018-12-22T22:24:06.649Z,99.90
2018-12-22T22:26:36.166Z,99.90
2018-12-22T22:29:05.775Z,99.90
2018-12-22T22:31:35.456Z,99.90
2018-12-22T22:34:05.055Z,99.90
2018-12-22T22:36:34.699Z,99.90
2018-12-22T22:39:05.142Z,99.90
2018-12-22T22:41:34.669Z,99.90
2018-12-22T22:44:04.192Z,99.90
2018-12-22T22:46:33.838Z,99.90
2018-12-22T22:49:03.389Z,99.90
2018-12-22T22:51:33.140Z,99.90
2018-12-22T22:54:02.999Z,99.90
2018-12-22T22:56:32.604Z,99.90
2018-12-22T22:59:02.102Z,99.90
2018-12-22T23:01:31.634Z,99.90
2018-12-22T23:04:01.131Z,99.90
2018-12-22T23:06:30.824Z,99.90
2018-12-22T23:09:00.960Z,99.90
2018-12-22T23:11:30.817Z,99.90
2018-12-22T23:14:00.451Z,99.90
2018-12-22T23:16:30.095Z,99.90
2018-12-22T23:18:59.889Z,99.90
2018-12-22T23:21:29.536Z,99.90
2018-12-22T23:23:59.722Z,99.90
2018-12-22T23:26:29.420Z,99.90
2018-12-22T23:28:59.029Z,99.90
2018-12-22T23:31:28.739Z,99.90
2018-12-22T23:33:58.630Z,99.90
2018-12-22T23:36:28.254Z,99.90
2018-12-22T23:38:58.435Z,99.90
2018-12-22T23:41:28.082Z,99.90
2018-12-22T23:43:57.658Z,99.90
2018-12-22T23:46:27.371Z,99.90
2018-12-22T23:48:57.003Z,99.90
2018-12-22T23:51:26.573Z,99.90
2018-12-22T23:53:56.211Z,99.90
2018-12-22T23:56:25.691Z,99.90
2018-12-22T23:58:55.305Z,99.90
